»·PEaware :: VRD717 KLAX-KPHX

VRD717 :: KLAX-KPHX

FLIGHT INFORMATION

Flight Status: Arrived
Operator:
Virgin America
More flights by this operator :: More flights under this callsign
Pilot: Ty S. (2873)
Aircraft: AIRBUS A321
(A321)
More flights by this aircraft type
Origin: KLAX Los Angeles Intl
United States
Destination: KPHX Phoenix Sky Harbor Intl
United States
More flights between these airports :: More routes between these airports
Route: +DOTSS2 CNERY BLH HYDRR1
File this flight plan on PilotEdge
Remarks: RMK / SIMBRIEF
Altitude:
(Current/Filed)
31,000ft
Speed:
(Current/Filed)
434kts
Departed: 20-Mar-20 06:07 PM
Arrived: 20-Mar-20 07:03 PM
Distance/Time
Traveled:
321nm/0:56
Distance/Time
To Go:
Arrived

Flight Plot

Page will automatically refresh every two minutes.

Flight plan parsing failed; only flown route is shown


Map Options




Map Legend


Flown Route
Filed Route
Departure Airport
Arrival Airport
Navaid (VOR, NDB)
Fix

Horizontal Profiles

Position Reports

Time Latitude Longitude Heading Altitude Ground
Speed
20-Mar-20 17:36 33.941030 -118.398940 306 136ft 0kts
20-Mar-20 17:37 33.941030 -118.398940 306 136ft 0kts
20-Mar-20 17:38 33.941030 -118.398940 306 136ft 0kts
20-Mar-20 17:39 33.941030 -118.398940 306 136ft 0kts
20-Mar-20 17:40 33.941030 -118.398940 306 136ft 0kts
20-Mar-20 17:41 33.941030 -118.398940 306 136ft 0kts
20-Mar-20 17:42 33.941030 -118.398940 306 136ft 0kts
20-Mar-20 17:43 33.941030 -118.398940 306 136ft 0kts
20-Mar-20 17:44 33.941030 -118.398940 306 136ft 0kts
20-Mar-20 17:45 33.941030 -118.398940 306 136ft 0kts
20-Mar-20 17:46 33.941030 -118.398940 306 136ft 0kts
20-Mar-20 17:47 33.941030 -118.398940 306 136ft 0kts
20-Mar-20 17:48 33.941030 -118.398940 306 136ft 0kts
20-Mar-20 17:49 33.941030 -118.398940 306 136ft 0kts
20-Mar-20 17:50 33.941030 -118.398940 306 136ft 0kts
20-Mar-20 17:51 33.941030 -118.398940 306 136ft 0kts
20-Mar-20 17:52 33.941030 -118.398940 306 136ft 0kts
20-Mar-20 17:53 33.940805 -118.398556 278 136ft 2kts
20-Mar-20 17:54 33.941070 -118.398251 167 136ft 0kts
20-Mar-20 17:55 33.941070 -118.398251 167 136ft 0kts
20-Mar-20 17:56 33.940584 -118.398254 181 136ft 0kts
20-Mar-20 17:57 33.940584 -118.398254 181 136ft 0kts
20-Mar-20 17:58 33.940584 -118.398254 181 136ft 0kts
20-Mar-20 17:59 33.940584 -118.398254 181 136ft 0kts
20-Mar-20 18:00 33.939109 -118.397350 96 136ft 14kts
20-Mar-20 18:01 33.939746 -118.390581 83 136ft 23kts
20-Mar-20 18:02 33.940512 -118.382934 82 136ft 22kts
20-Mar-20 18:03 33.940741 -118.380394 104 136ft 0kts
20-Mar-20 18:04 33.940118 -118.380028 189 136ft 9kts
20-Mar-20 18:05 33.939800 -118.380670 261 136ft 0kts
20-Mar-20 18:06 33.939267 -118.385812 263 136ft 96kts
20-Mar-20 18:07 33.933232 -118.440750 263 2232ft 175kts
20-Mar-20 18:08 33.903784 -118.500216 230 3492ft 249kts
20-Mar-20 18:09 33.850783 -118.559067 189 4991ft 266kts
20-Mar-20 18:10 33.777629 -118.542296 168 5003ft 268kts
20-Mar-20 18:11 33.705426 -118.519996 148 4984ft 269kts
20-Mar-20 18:12 33.673409 -118.440413 110 7046ft 259kts
20-Mar-20 18:13 33.649199 -118.356989 109 9359ft 283kts
20-Mar-20 18:14 33.644696 -118.255395 95 10940ft 338kts
20-Mar-20 18:15 33.645033 -118.134572 97 12808ft 373kts
20-Mar-20 18:16 33.644979 -118.007681 100 15274ft 380kts
20-Mar-20 18:17 33.644462 -117.876733 100 16927ft 405kts
20-Mar-20 18:18 33.632275 -117.741281 119 18414ft 406kts
20-Mar-20 18:19 33.598690 -117.609361 119 20138ft 418kts
20-Mar-20 18:20 33.565016 -117.473802 118 21783ft 428kts
20-Mar-20 18:21 33.530367 -117.334795 119 23191ft 438kts
20-Mar-20 18:22 33.503783 -117.191216 102 23206ft 457kts
20-Mar-20 18:23 33.502414 -117.036751 99 23930ft 465kts
20-Mar-20 18:24 33.500332 -116.880012 100 25247ft 472kts
20-Mar-20 18:25 33.497766 -116.720688 99 26472ft 481kts
20-Mar-20 18:26 33.494930 -116.559159 99 27642ft 489kts
20-Mar-20 18:27 33.491899 -116.394739 99 28764ft 497kts
20-Mar-20 18:28 33.489639 -116.229832 99 30027ft 497kts
20-Mar-20 18:29 33.489401 -116.062300 91 30934ft 511kts
20-Mar-20 18:30 33.526086 -115.893967 73 31205ft 526kts
20-Mar-20 18:31 33.575683 -115.728750 74 31206ft 526kts
20-Mar-20 18:32 33.623573 -115.561732 77 31204ft 524kts
20-Mar-20 18:33 33.640269 -115.392573 103 31205ft 501kts
20-Mar-20 18:34 33.614061 -115.233255 110 31204ft 492kts
20-Mar-20 18:35 33.605011 -115.066760 100 31206ft 504kts
20-Mar-20 18:36 33.600452 -114.898782 100 31206ft 503kts
20-Mar-20 18:37 33.590596 -114.731755 109 30992ft 492kts
20-Mar-20 18:38 33.560506 -114.574518 114 29996ft 478kts
20-Mar-20 18:39 33.530149 -114.420939 113 28915ft 471kts
20-Mar-20 18:40 33.502171 -114.278401 114 27371ft 458kts
20-Mar-20 18:41 33.472911 -114.131129 115 25730ft 447kts
20-Mar-20 18:42 33.443884 -113.985923 115 24403ft 447kts
20-Mar-20 18:43 33.414885 -113.841267 115 23405ft 441kts
20-Mar-20 18:44 33.386188 -113.699039 115 22411ft 434kts
20-Mar-20 18:45 33.357744 -113.559527 115 21416ft 428kts
20-Mar-20 18:46 33.330541 -113.421261 113 20421ft 425kts
20-Mar-20 18:47 33.307282 -113.285180 114 19433ft 418kts
20-Mar-20 18:48 33.285897 -113.148459 111 18416ft 416kts
20-Mar-20 18:49 33.275414 -113.011070 98 16935ft 414kts
20-Mar-20 18:50 33.279491 -112.876754 98 15609ft 390kts
20-Mar-20 18:51 33.305587 -112.752356 70 13728ft 385kts
20-Mar-20 18:52 33.348559 -112.641611 70 11762ft 347kts
20-Mar-20 18:53 33.386477 -112.542149 70 10861ft 312kts
20-Mar-20 18:54 33.420031 -112.449998 69 8541ft 290kts
20-Mar-20 18:55 33.429725 -112.363444 90 7213ft 238kts
20-Mar-20 18:56 33.429694 -112.287867 91 5681ft 216kts
20-Mar-20 18:58 33.429406 -112.224801 90 4561ft 172kts
20-Mar-20 18:59 33.429172 -112.168086 90 3466ft 168kts
20-Mar-20 19:00 33.428975 -112.114632 90 2587ft 156kts
20-Mar-20 19:01 33.428851 -112.062025 89 1735ft 152kts
20-Mar-20 19:02 33.428830 -112.013531 90 1143ft 81kts
20-Mar-20 19:03 33.431824 -112.006408 319 1143ft 17kts
20-Mar-20 19:04 33.434001 -112.008227 304 1143ft 0kts

Navigation Log

Ident Type
Flight plan parsing failed, navigation log unavailable